sensor_id;sensor_type;location;lat;lon;timestamp;pressure;altitude;pressure_sealevel;temperature;humidity
36014;BME280;22275;43.208;27.620;2023-05-08T00:00:15;101592.38;;;18.62;100.00
36014;BME280;22275;43.208;27.620;2023-05-08T00:02:43;101600.81;;;18.45;100.00
36014;BME280;22275;43.208;27.620;2023-05-08T00:05:11;101598.19;;;18.89;100.00
36014;BME280;22275;43.208;27.620;2023-05-08T00:07:38;101589.56;;;18.86;100.00
36014;BME280;22275;43.208;27.620;2023-05-08T00:10:05;101589.19;;;18.90;100.00
36014;BME280;22275;43.208;27.620;2023-05-08T00:12:32;101603.16;;;18.94;100.00
36014;BME280;22275;43.208;27.620;2023-05-08T00:15:00;101590.28;;;18.88;100.00
36014;BME280;22275;43.208;27.620;2023-05-08T00:17:27;101609.09;;;18.98;100.00
36014;BME280;22275;43.208;27.620;2023-05-08T00:19:53;101612.72;;;19.08;100.00
36014;BME280;22275;43.208;27.620;2023-05-08T00:22:22;101600.94;;;19.21;100.00
36014;BME280;22275;43.208;27.620;2023-05-08T00:24:49;101602.50;;;19.24;100.00
36014;BME280;22275;43.208;27.620;2023-05-08T00:27:15;101602.19;;;18.95;100.00
36014;BME280;22275;43.208;27.620;2023-05-08T00:29:42;101608.38;;;19.07;100.00
36014;BME280;22275;43.208;27.620;2023-05-08T00:32:09;101604.97;;;18.82;100.00
36014;BME280;22275;43.208;27.620;2023-05-08T00:34:36;101599.78;;;18.81;100.00
36014;BME280;22275;43.208;27.620;2023-05-08T00:37:03;101599.53;;;18.95;100.00
36014;BME280;22275;43.208;27.620;2023-05-08T00:39:31;101613.47;;;18.65;100.00
36014;BME280;22275;43.208;27.620;2023-05-08T00:41:58;101610.56;;;18.57;100.00
36014;BME280;22275;43.208;27.620;2023-05-08T00:44:24;101610.22;;;18.73;100.00
36014;BME280;22275;43.208;27.620;2023-05-08T00:46:51;101604.50;;;18.66;100.00
36014;BME280;22275;43.208;27.620;2023-05-08T00:49:18;101607.19;;;18.66;100.00
36014;BME280;22275;43.208;27.620;2023-05-08T00:51:46;101605.25;;;18.57;100.00
36014;BME280;22275;43.208;27.620;2023-05-08T00:54:13;101603.41;;;18.80;100.00
36014;BME280;22275;43.208;27.620;2023-05-08T00:56:43;101612.53;;;18.66;100.00
36014;BME280;22275;43.208;27.620;2023-05-08T00:59:12;101618.72;;;18.10;100.00
36014;BME280;22275;43.208;27.620;2023-05-08T01:01:40;101615.38;;;18.19;100.00
36014;BME280;22275;43.208;27.620;2023-05-08T01:04:09;101606.91;;;18.36;100.00
36014;BME280;22275;43.208;27.620;2023-05-08T01:06:37;101605.66;;;18.29;100.00
36014;BME280;22275;43.208;27.620;2023-05-08T01:09:04;101601.75;;;18.11;100.00
36014;BME280;22275;43.208;27.620;2023-05-08T01:11:36;101602.94;;;17.96;100.00
36014;BME280;22275;43.208;27.620;2023-05-08T01:14:15;101603.72;;;18.31;100.00
36014;BME280;22275;43.208;27.620;2023-05-08T01:16:45;101600.81;;;18.23;100.00
36014;BME280;22275;43.208;27.620;2023-05-08T01:19:38;101602.00;;;18.08;100.00
36014;BME280;22275;43.208;27.620;2023-05-08T01:22:16;101602.38;;;18.14;100.00
36014;BME280;22275;43.208;27.620;2023-05-08T01:25:09;101596.31;;;18.23;100.00
36014;BME280;22275;43.208;27.620;2023-05-08T01:27:56;101587.97;;;18.28;100.00
36014;BME280;22275;43.208;27.620;2023-05-08T01:30:58;101586.78;;;18.43;100.00
36014;BME280;22275;43.208;27.620;2023-05-08T01:33:32;101585.56;;;18.36;100.00
36014;BME280;22275;43.208;27.620;2023-05-08T01:36:10;101579.59;;;18.10;100.00
36014;BME280;22275;43.208;27.620;2023-05-08T01:38:43;101588.94;;;17.70;100.00
36014;BME280;22275;43.208;27.620;2023-05-08T01:41:16;101585.53;;;17.68;100.00
36014;BME280;22275;43.208;27.620;2023-05-08T01:43:50;101580.94;;;17.70;100.00
36014;BME280;22275;43.208;27.620;2023-05-08T01:46:23;101577.91;;;17.74;100.00
36014;BME280;22275;43.208;27.620;2023-05-08T01:48:57;101586.16;;;17.83;100.00
36014;BME280;22275;43.208;27.620;2023-05-08T01:51:27;101589.03;;;17.21;100.00
36014;BME280;22275;43.208;27.620;2023-05-08T01:54:03;101594.94;;;16.64;100.00
36014;BME280;22275;43.208;27.620;2023-05-08T01:56:32;101598.41;;;16.78;100.00
36014;BME280;22275;43.208;27.620;2023-05-08T01:59:01;101595.28;;;16.60;100.00
36014;BME280;22275;43.208;27.620;2023-05-08T02:01:31;101586.25;;;16.99;100.00
36014;BME280;22275;43.208;27.620;2023-05-08T02:04:02;101589.59;;;17.37;100.00
36014;BME280;22275;43.208;27.620;2023-05-08T02:06:32;101581.56;;;17.50;100.00
36014;BME280;22275;43.208;27.620;2023-05-08T02:09:01;101583.47;;;17.71;100.00
36014;BME280;22275;43.208;27.620;2023-05-08T02:11:29;101585.78;;;17.52;100.00
36014;BME280;22275;43.208;27.620;2023-05-08T02:13:59;101590.16;;;17.53;100.00
36014;BME280;22275;43.208;27.620;2023-05-08T02:16:28;101584.66;;;17.56;100.00
36014;BME280;22275;43.208;27.620;2023-05-08T02:18:58;101583.66;;;17.57;100.00
36014;BME280;22275;43.208;27.620;2023-05-08T02:21:27;101584.94;;;17.75;100.00
36014;BME280;22275;43.208;27.620;2023-05-08T02:23:57;101581.84;;;17.93;100.00
36014;BME280;22275;43.208;27.620;2023-05-08T02:26:26;101586.25;;;18.05;100.00
36014;BME280;22275;43.208;27.620;2023-05-08T02:28:54;101581.50;;;16.91;100.00
36014;BME280;22275;43.208;27.620;2023-05-08T02:31:23;101579.78;;;16.78;100.00
36014;BME280;22275;43.208;27.620;2023-05-08T02:33:51;101579.63;;;16.68;100.00
36014;BME280;22275;43.208;27.620;2023-05-08T02:36:19;101575.16;;;15.93;100.00
36014;BME280;22275;43.208;27.620;2023-05-08T02:38:50;101589.06;;;16.47;100.00
36014;BME280;22275;43.208;27.620;2023-05-08T02:41:19;101594.69;;;16.80;100.00
36014;BME280;22275;43.208;27.620;2023-05-08T02:43:48;101581.88;;;16.98;100.00
36014;BME280;22275;43.208;27.620;2023-05-08T02:46:20;101585.03;;;17.03;100.00
36014;BME280;22275;43.208;27.620;2023-05-08T02:48:55;101579.41;;;17.31;100.00
36014;BME280;22275;43.208;27.620;2023-05-08T02:51:27;101581.91;;;17.45;100.00
36014;BME280;22275;43.208;27.620;2023-05-08T02:54:00;101578.16;;;17.48;100.00
36014;BME280;22275;43.208;27.620;2023-05-08T02:56:33;101578.72;;;17.40;100.00
36014;BME280;22275;43.208;27.620;2023-05-08T02:59:12;101579.47;;;17.42;100.00
36014;BME280;22275;43.208;27.620;2023-05-08T03:01:46;101574.25;;;17.41;100.00
36014;BME280;22275;43.208;27.620;2023-05-08T03:04:21;101576.81;;;17.42;100.00
36014;BME280;22275;43.208;27.620;2023-05-08T03:06:51;101584.22;;;17.50;100.00
36014;BME280;22275;43.208;27.620;2023-05-08T03:09:23;101583.47;;;17.71;100.00
36014;BME280;22275;43.208;27.620;2023-05-08T03:12:02;101588.81;;;17.71;100.00
36014;BME280;22275;43.208;27.620;2023-05-08T03:14:35;101583.66;;;17.57;100.00
36014;BME280;22275;43.208;27.620;2023-05-08T03:17:06;101581.97;;;17.33;100.00
36014;BME280;22275;43.208;27.620;2023-05-08T03:19:36;101589.97;;;17.20;100.00
36014;BME280;22275;43.208;27.620;2023-05-08T03:22:06;101583.66;;;17.10;100.00
36014;BME280;22275;43.208;27.620;2023-05-08T03:24:36;101580.31;;;17.19;100.00
36014;BME280;22275;43.208;27.620;2023-05-08T03:27:05;101589.31;;;17.29;100.00
36014;BME280;22275;43.208;27.620;2023-05-08T03:29:33;101589.91;;;17.45;100.00
36014;BME280;22275;43.208;27.620;2023-05-08T03:32:02;101590.84;;;17.44;100.00
36014;BME280;22275;43.208;27.620;2023-05-08T03:34:32;101602.41;;;17.08;100.00
36014;BME280;22275;43.208;27.620;2023-05-08T03:37:00;101593.81;;;16.92;100.00
36014;BME280;22275;43.208;27.620;2023-05-08T03:39:27;101602.25;;;17.22;100.00
36014;BME280;22275;43.208;27.620;2023-05-08T03:41:56;101596.19;;;17.44;100.00
36014;BME280;22275;43.208;27.620;2023-05-08T03:44:23;101591.13;;;17.52;100.00
36014;BME280;22275;43.208;27.620;2023-05-08T03:46:54;101591.66;;;17.57;100.00
36014;BME280;22275;43.208;27.620;2023-05-08T03:49:24;101598.50;;;17.49;100.00
36014;BME280;22275;43.208;27.620;2023-05-08T03:51:52;101600.78;;;17.66;100.00
36014;BME280;22275;43.208;27.620;2023-05-08T03:54:21;101607.88;;;17.89;100.00
36014;BME280;22275;43.208;27.620;2023-05-08T03:56:51;101601.50;;;18.14;100.00
36014;BME280;22275;43.208;27.620;2023-05-08T03:59:27;101610.28;;;18.38;100.00
36014;BME280;22275;43.208;27.620;2023-05-08T04:02:06;101607.88;;;17.89;100.00
36014;BME280;22275;43.208;27.620;2023-05-08T04:04:38;101610.72;;;17.99;100.00
36014;BME280;22275;43.208;27.620;2023-05-08T04:07:09;101604.09;;;18.15;100.00
36014;BME280;22275;43.208;27.620;2023-05-08T04:09:42;101604.81;;;18.39;100.00
36014;BME280;22275;43.208;27.620;2023-05-08T04:12:16;101611.81;;;18.53;100.00
36014;BME280;22275;43.208;27.620;2023-05-08T04:14:49;101605.84;;;18.61;100.00
36014;BME280;22275;43.208;27.620;2023-05-08T04:17:25;101598.69;;;18.61;100.00
36014;BME280;22275;43.208;27.620;2023-05-08T04:19:59;101608.38;;;18.84;100.00
36014;BME280;22275;43.208;27.620;2023-05-08T04:22:28;101614.09;;;18.58;100.00
36014;BME280;22275;43.208;27.620;2023-05-08T04:24:58;101606.22;;;18.67;100.00
36014;BME280;22275;43.208;27.620;2023-05-08T04:27:27;101602.22;;;18.84;100.00
36014;BME280;22275;43.208;27.620;2023-05-08T04:29:56;101590.03;;;18.91;100.00
36014;BME280;22275;43.208;27.620;2023-05-08T04:32:25;101598.50;;;19.07;100.00
36014;BME280;22275;43.208;27.620;2023-05-08T04:34:53;101599.22;;;19.20;100.00
36014;BME280;22275;43.208;27.620;2023-05-08T04:37:23;101587.03;;;19.38;100.00
36014;BME280;22275;43.208;27.620;2023-05-08T04:39:51;101596.47;;;19.54;100.00
36014;BME280;22275;43.208;27.620;2023-05-08T04:42:19;101594.34;;;19.25;100.00
36014;BME280;22275;43.208;27.620;2023-05-08T04:44:46;101611.66;;;17.39;100.00
36014;BME280;22275;43.208;27.620;2023-05-08T04:47:15;101612.91;;;16.74;100.00
36014;BME280;22275;43.208;27.620;2023-05-08T04:49:42;101610.56;;;17.18;100.00
36014;BME280;22275;43.208;27.620;2023-05-08T04:52:10;101604.38;;;18.00;100.00
36014;BME280;22275;43.208;27.620;2023-05-08T04:54:37;101606.28;;;18.32;100.00
36014;BME280;22275;43.208;27.620;2023-05-08T04:57:05;101606.09;;;18.69;100.00
36014;BME280;22275;43.208;27.620;2023-05-08T04:59:33;101596.63;;;19.30;100.00
36014;BME280;22275;43.208;27.620;2023-05-08T05:02:00;101603.28;;;19.99;100.00
36014;BME280;22275;43.208;27.620;2023-05-08T05:04:28;101595.00;;;19.81;100.00
36014;BME280;22275;43.208;27.620;2023-05-08T05:06:56;101606.16;;;18.23;100.00
36014;BME280;22275;43.208;27.620;2023-05-08T05:09:23;101609.69;;;17.89;100.00
36014;BME280;22275;43.208;27.620;2023-05-08T05:11:50;101612.19;;;18.14;100.00
36014;BME280;22275;43.208;27.620;2023-05-08T05:14:18;101607.63;;;18.27;100.00
36014;BME280;22275;43.208;27.620;2023-05-08T05:16:45;101598.31;;;18.55;100.00
36014;BME280;22275;43.208;27.620;2023-05-08T05:19:12;101580.84;;;19.38;100.00
36014;BME280;22275;43.208;27.620;2023-05-08T05:21:41;101580.00;;;19.90;100.00
36014;BME280;22275;43.208;27.620;2023-05-08T05:24:08;101573.38;;;20.26;100.00
36014;BME280;22275;43.208;27.620;2023-05-08T05:26:36;101581.91;;;20.50;100.00
36014;BME280;22275;43.208;27.620;2023-05-08T05:29:03;101577.84;;;20.46;100.00
36014;BME280;22275;43.208;27.620;2023-05-08T05:31:30;101584.06;;;20.26;100.00
36014;BME280;22275;43.208;27.620;2023-05-08T05:33:57;101599.63;;;17.81;100.00
36014;BME280;22275;43.208;27.620;2023-05-08T05:36:25;101595.66;;;17.87;100.00
36014;BME280;22275;43.208;27.620;2023-05-08T05:38:53;101596.28;;;18.69;100.00
36014;BME280;22275;43.208;27.620;2023-05-08T05:41:21;101597.44;;;18.43;100.00
36014;BME280;22275;43.208;27.620;2023-05-08T05:43:49;101595.28;;;18.59;100.00
36014;BME280;22275;43.208;27.620;2023-05-08T05:46:15;101589.06;;;19.03;100.00
36014;BME280;22275;43.208;27.620;2023-05-08T05:48:43;101589.00;;;18.60;100.00
36014;BME280;22275;43.208;27.620;2023-05-08T05:51:10;101583.50;;;19.38;100.00
36014;BME280;22275;43.208;27.620;2023-05-08T05:53:37;101589.66;;;20.23;100.00
36014;BME280;22275;43.208;27.620;2023-05-08T05:56:06;101584.59;;;20.80;100.00
36014;BME280;22275;43.208;27.620;2023-05-08T05:58:34;101581.50;;;21.34;100.00
36014;BME280;22275;43.208;27.620;2023-05-08T06:01:01;101584.44;;;21.60;100.00
36014;BME280;22275;43.208;27.620;2023-05-08T06:03:28;101581.06;;;21.96;100.00
36014;BME280;22275;43.208;27.620;2023-05-08T06:05:55;101579.03;;;22.17;100.00
36014;BME280;22275;43.208;27.620;2023-05-08T06:08:22;101576.47;;;22.25;100.00
36014;BME280;22275;43.208;27.620;2023-05-08T06:10:49;101577.53;;;22.42;100.00
36014;BME280;22275;43.208;27.620;2023-05-08T06:13:18;101579.44;;;22.69;100.00
36014;BME280;22275;43.208;27.620;2023-05-08T06:15:45;101581.28;;;22.68;100.00
36014;BME280;22275;43.208;27.620;2023-05-08T06:18:13;101576.34;;;22.64;100.00
36014;BME280;22275;43.208;27.620;2023-05-08T06:20:40;101565.81;;;22.80;100.00
36014;BME280;22275;43.208;27.620;2023-05-08T06:23:08;101568.91;;;23.30;100.00
36014;BME280;22275;43.208;27.620;2023-05-08T06:25:35;101563.84;;;23.44;100.00
36014;BME280;22275;43.208;27.620;2023-05-08T06:28:02;101555.56;;;23.81;100.00
36014;BME280;22275;43.208;27.620;2023-05-08T06:30:32;101556.41;;;23.82;100.00
36014;BME280;22275;43.208;27.620;2023-05-08T06:32:59;101556.22;;;24.01;100.00
36014;BME280;22275;43.208;27.620;2023-05-08T06:35:27;101562.66;;;24.59;100.00
36014;BME280;22275;43.208;27.620;2023-05-08T06:37:54;101550.34;;;24.91;100.00
36014;BME280;22275;43.208;27.620;2023-05-08T06:40:21;101549.06;;;25.27;100.00
36014;BME280;22275;43.208;27.620;2023-05-08T06:42:49;101546.69;;;25.24;100.00
36014;BME280;22275;43.208;27.620;2023-05-08T06:45:16;101543.00;;;25.17;100.00
36014;BME280;22275;43.208;27.620;2023-05-08T06:47:45;101536.22;;;25.13;100.00
36014;BME280;22275;43.208;27.620;2023-05-08T06:50:12;101537.13;;;24.72;100.00
36014;BME280;22275;43.208;27.620;2023-05-08T06:52:39;101540.09;;;24.61;100.00
36014;BME280;22275;43.208;27.620;2023-05-08T06:55:07;101538.09;;;24.63;100.00
36014;BME280;22275;43.208;27.620;2023-05-08T06:57:35;101531.41;;;24.75;100.00
36014;BME280;22275;43.208;27.620;2023-05-08T07:00:02;101522.28;;;24.76;100.00
36014;BME280;22275;43.208;27.620;2023-05-08T07:02:29;101525.88;;;24.42;99.96
36014;BME280;22275;43.208;27.620;2023-05-08T07:04:58;101526.63;;;24.27;92.68
36014;BME280;22275;43.208;27.620;2023-05-08T07:07:25;101523.47;;;24.31;100.00
36014;BME280;22275;43.208;27.620;2023-05-08T07:09:52;101515.53;;;24.04;100.00
36014;BME280;22275;43.208;27.620;2023-05-08T07:12:19;101516.56;;;24.71;100.00
36014;BME280;22275;43.208;27.620;2023-05-08T07:14:47;101515.72;;;24.78;100.00
36014;BME280;22275;43.208;27.620;2023-05-08T07:17:14;101513.66;;;25.14;100.00
36014;BME280;22275;43.208;27.620;2023-05-08T07:19:41;101509.28;;;25.21;95.96
36014;BME280;22275;43.208;27.620;2023-05-08T07:22:10;101521.44;;;25.25;97.89
36014;BME280;22275;43.208;27.620;2023-05-08T07:24:36;101530.16;;;25.03;98.09
36014;BME280;22275;43.208;27.620;2023-05-08T07:27:03;101523.97;;;25.67;96.35
36014;BME280;22275;43.208;27.620;2023-05-08T07:29:31;101520.06;;;25.29;96.85
36014;BME280;22275;43.208;27.620;2023-05-08T07:31:58;101525.47;;;25.29;96.26
36014;BME280;22275;43.208;27.620;2023-05-08T07:34:25;101523.66;;;25.54;96.60
36014;BME280;22275;43.208;27.620;2023-05-08T07:36:52;101534.94;;;25.49;96.47
36014;BME280;22275;43.208;27.620;2023-05-08T07:39:21;101529.00;;;25.46;96.18
36014;BME280;22275;43.208;27.620;2023-05-08T07:41:48;101529.75;;;24.82;93.99
36014;BME280;22275;43.208;27.620;2023-05-08T07:44:15;101521.97;;;24.79;96.94
36014;BME280;22275;43.208;27.620;2023-05-08T07:46:42;101521.41;;;25.17;93.22
36014;BME280;22275;43.208;27.620;2023-05-08T07:49:09;101518.94;;;25.64;92.78
36014;BME280;22275;43.208;27.620;2023-05-08T07:51:36;101523.16;;;25.58;87.24
36014;BME280;22275;43.208;27.620;2023-05-08T07:54:03;101523.13;;;25.91;87.02
36014;BME280;22275;43.208;27.620;2023-05-08T07:56:32;101517.22;;;25.31;87.21
36014;BME280;22275;43.208;27.620;2023-05-08T07:58:59;101526.50;;;25.36;82.65
36014;BME280;22275;43.208;27.620;2023-05-08T08:01:27;101512.34;;;25.34;82.70
36014;BME280;22275;43.208;27.620;2023-05-08T08:03:55;101523.81;;;25.60;85.61
36014;BME280;22275;43.208;27.620;2023-05-08T08:06:22;101513.19;;;25.43;86.68
36014;BME280;22275;43.208;27.620;2023-05-08T08:08:50;101512.00;;;25.45;81.57
36014;BME280;22275;43.208;27.620;2023-05-08T08:11:17;101502.53;;;25.17;87.09
36014;BME280;22275;43.208;27.620;2023-05-08T08:13:45;101509.66;;;25.58;92.28
36014;BME280;22275;43.208;27.620;2023-05-08T08:16:13;101509.75;;;25.00;86.63
36014;BME280;22275;43.208;27.620;2023-05-08T08:18:40;101505.72;;;25.21;84.14
36014;BME280;22275;43.208;27.620;2023-05-08T08:21:07;101507.44;;;25.30;83.70
36014;BME280;22275;43.208;27.620;2023-05-08T08:23:34;101503.88;;;25.78;83.35
36014;BME280;22275;43.208;27.620;2023-05-08T08:26:02;101496.63;;;25.38;90.16
36014;BME280;22275;43.208;27.620;2023-05-08T08:28:29;101490.38;;;25.05;91.44
36014;BME280;22275;43.208;27.620;2023-05-08T08:30:58;101491.97;;;24.74;89.99
36014;BME280;22275;43.208;27.620;2023-05-08T08:33:26;101498.13;;;24.50;89.33
36014;BME280;22275;43.208;27.620;2023-05-08T08:35:53;101496.50;;;25.31;93.68
36014;BME280;22275;43.208;27.620;2023-05-08T08:38:20;101490.25;;;25.23;87.85
36014;BME280;22275;43.208;27.620;2023-05-08T08:40:48;101490.06;;;25.40;97.89
36014;BME280;22275;43.208;27.620;2023-05-08T08:43:15;101481.31;;;25.06;90.67
36014;BME280;22275;43.208;27.620;2023-05-08T08:45:42;101477.28;;;25.34;83.92
36014;BME280;22275;43.208;27.620;2023-05-08T08:48:12;101477.75;;;25.13;85.16
36014;BME280;22275;43.208;27.620;2023-05-08T08:50:41;101483.28;;;24.88;87.04
36014;BME280;22275;43.208;27.620;2023-05-08T08:53:09;101480.78;;;24.94;84.17
36014;BME280;22275;43.208;27.620;2023-05-08T08:55:38;101481.63;;;25.03;89.97
36014;BME280;22275;43.208;27.620;2023-05-08T08:58:13;101482.47;;;25.36;85.76
36014;BME280;22275;43.208;27.620;2023-05-08T09:00:43;101489.94;;;25.50;86.81
36014;BME280;22275;43.208;27.620;2023-05-08T09:03:13;101462.09;;;25.65;78.67
36014;BME280;22275;43.208;27.620;2023-05-08T09:05:40;101452.25;;;25.89;71.85
36014;BME280;22275;43.208;27.620;2023-05-08T09:08:08;101455.34;;;26.33;75.90
36014;BME280;22275;43.208;27.620;2023-05-08T09:10:35;101463.13;;;26.11;69.39
36014;BME280;22275;43.208;27.620;2023-05-08T09:13:03;101460.78;;;26.08;66.51
36014;BME280;22275;43.208;27.620;2023-05-08T09:15:30;101473.84;;;25.89;80.30
36014;BME280;22275;43.208;27.620;2023-05-08T09:17:57;101468.25;;;25.98;77.34
36014;BME280;22275;43.208;27.620;2023-05-08T09:20:25;101463.41;;;25.78;76.43
36014;BME280;22275;43.208;27.620;2023-05-08T09:22:52;101469.13;;;25.91;83.45
36014;BME280;22275;43.208;27.620;2023-05-08T09:25:19;101473.50;;;25.84;72.37
36014;BME280;22275;43.208;27.620;2023-05-08T09:27:46;101493.19;;;26.24;79.15
36014;BME280;22275;43.208;27.620;2023-05-08T09:30:13;101479.59;;;25.94;75.34
36014;BME280;22275;43.208;27.620;2023-05-08T09:32:40;101468.66;;;26.34;76.40
36014;BME280;22275;43.208;27.620;2023-05-08T09:35:08;101477.84;;;26.17;77.47
36014;BME280;22275;43.208;27.620;2023-05-08T09:37:39;101480.28;;;25.88;75.78
36014;BME280;22275;43.208;27.620;2023-05-08T09:40:13;101471.09;;;26.21;83.48
36014;BME280;22275;43.208;27.620;2023-05-08T09:42:41;101473.00;;;25.80;80.88
36014;BME280;22275;43.208;27.620;2023-05-08T09:45:08;101458.19;;;26.31;82.42
36014;BME280;22275;43.208;27.620;2023-05-08T09:47:35;101464.22;;;26.02;83.32
36014;BME280;22275;43.208;27.620;2023-05-08T09:50:04;101469.00;;;25.76;81.55
36014;BME280;22275;43.208;27.620;2023-05-08T09:52:32;101473.38;;;25.69;81.31
36014;BME280;22275;43.208;27.620;2023-05-08T09:55:01;101448.72;;;25.88;81.24
36014;BME280;22275;43.208;27.620;2023-05-08T09:57:31;101461.56;;;25.38;84.03
36014;BME280;22275;43.208;27.620;2023-05-08T10:00:03;101453.66;;;25.60;82.19
36014;BME280;22275;43.208;27.620;2023-05-08T10:02:32;101482.81;;;25.17;86.99
36014;BME280;22275;43.208;27.620;2023-05-08T10:05:00;101473.88;;;25.24;92.57
36014;BME280;22275;43.208;27.620;2023-05-08T10:07:28;101477.56;;;25.07;91.90
36014;BME280;22275;43.208;27.620;2023-05-08T10:10:02;101481.47;;;25.37;92.63
36014;BME280;22275;43.208;27.620;2023-05-08T10:12:31;101476.22;;;25.43;88.75
36014;BME280;22275;43.208;27.620;2023-05-08T10:14:58;101478.59;;;25.06;89.54
36014;BME280;22275;43.208;27.620;2023-05-08T10:17:31;101458.88;;;25.13;87.21
36014;BME280;22275;43.208;27.620;2023-05-08T10:20:05;101471.50;;;25.29;96.03
36014;BME280;22275;43.208;27.620;2023-05-08T10:22:35;101456.16;;;24.89;93.71
36014;BME280;22275;43.208;27.620;2023-05-08T10:25:07;101448.09;;;25.05;96.10
36014;BME280;22275;43.208;27.620;2023-05-08T10:27:40;101449.94;;;25.05;91.69
36014;BME280;22275;43.208;27.620;2023-05-08T10:30:09;101460.56;;;25.71;93.85
36014;BME280;22275;43.208;27.620;2023-05-08T10:32:42;101459.38;;;25.33;91.68
36014;BME280;22275;43.208;27.620;2023-05-08T10:35:11;101463.09;;;25.08;100.00
36014;BME280;22275;43.208;27.620;2023-05-08T10:37:38;101471.84;;;25.10;100.00
36014;BME280;22275;43.208;27.620;2023-05-08T10:40:09;101473.78;;;24.76;100.00
36014;BME280;22275;43.208;27.620;2023-05-08T10:42:37;101458.03;;;24.89;100.00
36014;BME280;22275;43.208;27.620;2023-05-08T10:45:06;101449.94;;;25.05;98.25
36014;BME280;22275;43.208;27.620;2023-05-08T10:47:55;101464.31;;;24.64;96.22
36014;BME280;22275;43.208;27.620;2023-05-08T10:50:41;101464.16;;;24.57;100.00
36014;BME280;22275;43.208;27.620;2023-05-08T10:53:15;101468.38;;;24.76;100.00
36014;BME280;22275;43.208;27.620;2023-05-08T10:55:49;101463.94;;;24.50;100.00
36014;BME280;22275;43.208;27.620;2023-05-08T10:58:28;101460.28;;;24.68;100.00
36014;BME280;22275;43.208;27.620;2023-05-08T11:01:15;101457.59;;;24.68;100.00
36014;BME280;22275;43.208;27.620;2023-05-08T11:03:44;101464.78;;;24.09;100.00
36014;BME280;22275;43.208;27.620;2023-05-08T11:06:12;101473.69;;;24.43;100.00
36014;BME280;22275;43.208;27.620;2023-05-08T11:08:44;101475.19;;;24.88;100.00
36014;BME280;22275;43.208;27.620;2023-05-08T11:11:19;101470.66;;;24.46;100.00
36014;BME280;22275;43.208;27.620;2023-05-08T11:13:52;101475.09;;;24.64;100.00
36014;BME280;22275;43.208;27.620;2023-05-08T11:19:21;101481.50;;;25.53;100.00
36014;BME280;22275;43.208;27.620;2023-05-08T11:24:48;101477.56;;;25.07;100.00
36014;BME280;22275;43.208;27.620;2023-05-08T11:27:17;101478.56;;;24.90;100.00
36014;BME280;22275;43.208;27.620;2023-05-08T11:29:44;101479.09;;;24.43;100.00
36014;BME280;22275;43.208;27.620;2023-05-08T11:32:11;101474.91;;;24.49;100.00
36014;BME280;22275;43.208;27.620;2023-05-08T11:34:43;101481.91;;;24.84;100.00
36014;BME280;22275;43.208;27.620;2023-05-08T11:37:10;101462.44;;;24.56;100.00
36014;BME280;22275;43.208;27.620;2023-05-08T11:39:38;101469.41;;;24.25;100.00
36014;BME280;22275;43.208;27.620;2023-05-08T11:44:50;101485.84;;;24.55;100.00
36014;BME280;22275;43.208;27.620;2023-05-08T11:47:25;101473.41;;;24.63;100.00
36014;BME280;22275;43.208;27.620;2023-05-08T11:49:57;101470.16;;;24.09;100.00
36014;BME280;22275;43.208;27.620;2023-05-08T11:52:24;101455.78;;;24.26;100.00
36014;BME280;22275;43.208;27.620;2023-05-08T11:54:51;101459.84;;;24.38;100.00
36014;BME280;22275;43.208;27.620;2023-05-08T11:57:19;101473.41;;;24.63;100.00
36014;BME280;22275;43.208;27.620;2023-05-08T11:59:49;101484.66;;;25.08;100.00
36014;BME280;22275;43.208;27.620;2023-05-08T12:02:16;101475.69;;;24.41;100.00
36014;BME280;22275;43.208;27.620;2023-05-08T12:04:43;101485.16;;;24.12;100.00
36014;BME280;22275;43.208;27.620;2023-05-08T12:07:11;101471.22;;;24.16;100.00
36014;BME280;22275;43.208;27.620;2023-05-08T12:09:37;101474.75;;;24.17;100.00
36014;BME280;22275;43.208;27.620;2023-05-08T12:12:04;101462.84;;;24.01;100.00
36014;BME280;22275;43.208;27.620;2023-05-08T12:14:31;101463.13;;;23.65;100.00
36014;BME280;22275;43.208;27.620;2023-05-08T12:17:02;101470.03;;;23.93;100.00
36014;BME280;22275;43.208;27.620;2023-05-08T12:19:29;101466.88;;;24.23;100.00
36014;BME280;22275;43.208;27.620;2023-05-08T12:21:55;101465.38;;;23.95;100.00
36014;BME280;22275;43.208;27.620;2023-05-08T12:24:23;101477.44;;;23.91;100.00
36014;BME280;22275;43.208;27.620;2023-05-08T12:26:52;101478.13;;;23.93;100.00
36014;BME280;22275;43.208;27.620;2023-05-08T12:29:19;101472.25;;;23.46;100.00
36014;BME280;22275;43.208;27.620;2023-05-08T12:31:47;101481.88;;;23.74;100.00
36014;BME280;22275;43.208;27.620;2023-05-08T12:34:16;101485.91;;;23.78;100.00
36014;BME280;22275;43.208;27.620;2023-05-08T12:36:43;101476.31;;;23.32;100.00
36014;BME280;22275;43.208;27.620;2023-05-08T12:39:11;101490.22;;;23.45;100.00
36014;BME280;22275;43.208;27.620;2023-05-08T12:41:45;101483.09;;;23.80;100.00
36014;BME280;22275;43.208;27.620;2023-05-08T12:44:21;101494.56;;;23.38;100.00
36014;BME280;22275;43.208;27.620;2023-05-08T12:46:48;101488.09;;;23.75;100.00
36014;BME280;22275;43.208;27.620;2023-05-08T12:49:24;101485.59;;;23.56;100.00
36014;BME280;22275;43.208;27.620;2023-05-08T12:51:51;101473.84;;;23.57;100.00